Time;durP1;ratioP1;P1;durP2;ratioP2;P2;SDS_P1;SDS_P2;PMS_P1;PMS_P2;Temp;Humidity;BMP_temperature;BMP_pressure;BME280_temperature;BME280_humidity;BME280_pressure;Samples;Min_cycle;Max_cycle;Signal;HPM_P1;HPM_P2
2024/03/17 00:01:31;;;;;;;20.02;4.10;;;;;;;3.69;100.00;102234.19;10270950;28;20037;-75
2024/03/17 00:06:27;;;;;;;17.73;3.78;;;;;;;3.79;100.00;102234.44;10270344;28;20049;-75
2024/03/17 00:11:23;;;;;;;18.83;4.38;;;;;;;3.80;100.00;102242.28;10272629;28;20083;-74
2024/03/17 00:16:18;;;;;;;22.33;4.63;;;;;;;3.78;100.00;102239.03;10270166;28;20394;-76
2024/03/17 00:21:14;;;;;;;15.63;3.80;;;;;;;3.81;100.00;102259.38;10270728;28;20067;-77
2024/03/17 00:26:09;;;;;;;18.30;3.60;;;;;;;3.90;100.00;102257.97;10267030;28;20473;-76
2024/03/17 00:31:05;;;;;;;16.40;3.88;;;;;;;3.90;100.00;102257.97;10272107;28;20049;-76
2024/03/17 00:36:01;;;;;;;14.10;3.40;;;;;;;3.79;100.00;102258.78;10261211;28;20071;-74
2024/03/17 00:40:56;;;;;;;24.60;4.72;;;;;;;3.78;100.00;102257.13;10263351;28;20110;-73
2024/03/17 00:45:52;;;;;;;18.58;4.18;;;;;;;3.77;100.00;102263.59;10265217;28;20497;-76
2024/03/17 00:50:55;;;;;;;10.05;3.10;;;;;;;3.95;100.00;102263.50;10275891;28;20512;-73
2024/03/17 00:55:57;;;;;;;11.18;3.35;;;;;;;4.15;100.00;102276.66;10270244;28;20048;-72
2024/03/17 01:00:53;;;;;;;12.40;3.25;;;;;;;4.18;100.00;102275.38;10269941;28;20087;-73
2024/03/17 01:05:52;;;;;;;18.25;3.72;;;;;;;4.12;100.00;102271.72;10264952;28;20547;-73
2024/03/17 01:10:49;;;;;;;18.38;3.60;;;;;;;4.09;100.00;102272.19;10270133;28;20041;-76
2024/03/17 01:15:45;;;;;;;24.73;3.10;;;;;;;4.13;100.00;102269.81;10271447;28;20037;-75
2024/03/17 01:20:41;;;;;;;20.02;4.75;;;;;;;4.14;100.00;102268.78;10269873;28;20424;-73
2024/03/17 01:25:37;;;;;;;20.55;4.43;;;;;;;4.21;100.00;102280.31;10261060;28;20055;-72
2024/03/17 01:30:34;;;;;;;18.52;3.45;;;;;;;4.03;100.00;102273.13;10267887;28;20456;-74
2024/03/17 01:35:29;;;;;;;17.75;3.80;;;;;;;3.85;100.00;102271.34;10266816;28;20445;-75
2024/03/17 01:40:25;;;;;;;15.60;5.03;;;;;;;3.73;100.00;102267.81;10264674;28;20040;-74
2024/03/17 01:45:34;;;;;;;16.92;3.70;;;;;;;3.62;100.00;102265.94;10266062;28;20060;-74
2024/03/17 01:50:33;;;;;;;18.15;3.85;;;;;;;3.53;100.00;102263.56;10265198;28;20526;-75
2024/03/17 01:55:28;;;;;;;17.02;3.55;;;;;;;3.49;100.00;102262.38;10267339;28;20124;-74
2024/03/17 02:00:24;;;;;;;18.25;3.92;;;;;;;3.40;100.00;102269.19;10269163;28;20509;-76
2024/03/17 02:05:20;;;;;;;19.98;4.15;;;;;;;3.42;100.00;102272.50;10267260;28;20049;-76
2024/03/17 02:10:15;;;;;;;12.38;3.42;;;;;;;3.49;100.00;102267.78;10270186;28;20799;-76
2024/03/17 02:15:11;;;;;;;12.25;3.13;;;;;;;3.47;100.00;102269.91;10273188;28;20412;-75
2024/03/17 02:20:07;;;;;;;16.10;3.72;;;;;;;3.45;100.00;102284.72;10270137;28;20041;-76
2024/03/17 02:25:04;;;;;;;18.35;4.20;;;;;;;3.47;100.00;102275.31;10262818;28;20103;-76
2024/03/17 02:29:59;;;;;;;16.33;4.28;;;;;;;3.50;100.00;102274.84;10268379;28;20049;-75
2024/03/17 02:34:55;;;;;;;16.08;3.63;;;;;;;3.53;100.00;102268.16;10267265;28;20417;-75
2024/03/17 02:39:50;;;;;;;11.88;3.92;;;;;;;3.49;100.00;102265.09;10268969;28;20040;-73
2024/03/17 02:44:46;;;;;;;18.80;3.90;;;;;;;3.51;100.00;102276.50;10264928;28;20065;-74
2024/03/17 02:49:43;;;;;;;10.00;3.90;;;;;;;3.61;100.00;102280.53;10278357;28;20060;-75
2024/03/17 02:54:39;;;;;;;22.00;4.35;;;;;;;3.53;100.00;102279.81;10273553;28;20101;-74
2024/03/17 02:59:35;;;;;;;17.30;4.47;;;;;;;3.33;100.00;102273.88;10269644;28;20060;-75
2024/03/17 03:04:30;;;;;;;24.60;3.92;;;;;;;3.24;100.00;102269.84;10274496;28;20492;-74
2024/03/17 03:09:31;;;;;;;19.42;3.85;;;;;;;3.22;100.00;102277.38;10270860;28;20048;-75
2024/03/17 03:14:26;;;;;;;17.65;3.92;;;;;;;3.06;100.00;102274.25;10272978;28;20061;-74
2024/03/17 03:19:22;;;;;;;12.35;3.53;;;;;;;3.02;100.00;102273.06;10270172;28;20041;-74
2024/03/17 03:24:18;;;;;;;16.98;3.53;;;;;;;3.02;100.00;102273.06;10277591;28;20047;-75
2024/03/17 03:29:14;;;;;;;8.25;3.63;;;;;;;2.91;100.00;102271.13;10265696;28;20071;-74
2024/03/17 03:34:10;;;;;;;18.83;5.10;;;;;;;2.95;100.00;102275.03;10273535;28;20468;-76
2024/03/17 03:39:06;;;;;;;10.70;3.30;;;;;;;2.84;100.00;102278.50;10268880;28;20069;-75
2024/03/17 03:44:01;;;;;;;20.48;3.65;;;;;;;2.81;100.00;102277.09;10269978;28;20500;-75
2024/03/17 03:48:57;;;;;;;14.80;3.45;;;;;;;2.66;100.00;102280.16;10276958;28;20685;-78
2024/03/17 03:53:53;;;;;;;15.98;3.65;;;;;;;2.55;100.00;102272.81;10270308;28;20643;-77
2024/03/17 03:58:50;;;;;;;21.90;4.43;;;;;;;2.47;100.00;102273.13;10283676;28;20037;-76
2024/03/17 04:03:45;;;;;;;24.65;4.18;;;;;;;2.47;100.00;102270.44;10279932;28;20051;-76
2024/03/17 04:08:41;;;;;;;14.93;3.40;;;;;;;2.61;100.00;102250.31;10271512;28;20040;-76
2024/03/17 04:13:37;;;;;;;12.50;3.25;;;;;;;2.76;100.00;102268.00;10281310;28;20086;-77
2024/03/17 04:18:34;;;;;;;10.80;3.10;;;;;;;3.08;100.00;102276.72;10273699;28;20044;-77
2024/03/17 04:23:32;;;;;;;13.80;4.28;;;;;;;3.24;100.00;102267.16;10275257;28;20539;-76
2024/03/17 04:28:27;;;;;;;18.15;3.38;;;;;;;3.36;100.00;102270.69;10272377;28;20094;-76
2024/03/17 04:33:23;;;;;;;14.13;3.58;;;;;;;3.43;100.00;102278.72;10273724;28;20094;-75
2024/03/17 04:38:20;;;;;;;12.35;3.60;;;;;;;3.63;100.00;102278.41;10273805;28;20435;-76
2024/03/17 04:43:15;;;;;;;19.48;5.15;;;;;;;3.62;100.00;102282.16;10277939;28;20045;-80
2024/03/17 04:48:11;;;;;;;18.33;3.60;;;;;;;3.56;100.00;102279.34;10273147;28;20033;-78
2024/03/17 04:53:06;;;;;;;23.45;4.55;;;;;;;3.58;100.00;102276.41;10264860;28;20415;-77
2024/03/17 04:58:02;;;;;;;16.67;3.70;;;;;;;3.56;100.00;102295.56;10275265;28;20458;-75
2024/03/17 05:02:57;;;;;;;14.45;3.78;;;;;;;3.62;100.00;102303.78;10276892;28;20424;-73
2024/03/17 05:07:53;;;;;;;18.90;3.85;;;;;;;3.43;100.00;102306.56;10281136;28;20047;-74
2024/03/17 05:12:49;;;;;;;21.08;4.03;;;;;;;3.38;100.00;102303.75;10278254;28;20140;-72
2024/03/17 05:17:44;;;;;;;16.88;3.58;;;;;;;3.39;100.00;102300.00;10270524;28;20069;-72
2024/03/17 05:22:40;;;;;;;12.57;4.72;;;;;;;3.39;100.00;102321.63;10262062;28;20041;-73
2024/03/17 05:27:36;;;;;;;16.38;3.70;;;;;;;3.30;100.00;102323.00;10272078;28;20052;-75
2024/03/17 05:32:32;;;;;;;18.80;3.97;;;;;;;3.19;100.00;102323.78;10273736;28;20045;-75
2024/03/17 05:37:27;;;;;;;12.70;4.35;;;;;;;2.97;100.00;102318.88;10270980;28;20120;-74
2024/03/17 05:42:23;;;;;;;17.85;5.25;;;;;;;2.81;100.00;102330.28;10266478;28;20116;-73
2024/03/17 05:47:19;;;;;;;21.35;4.18;;;;;;;2.71;100.00;102328.94;10266666;28;20048;-73
2024/03/17 05:52:14;;;;;;;16.63;4.45;;;;;;;2.61;100.00;102325.94;10269589;28;20493;-72
2024/03/17 05:57:12;;;;;;;13.75;4.63;;;;;;;2.54;100.00;102327.88;10263283;28;20404;-73
2024/03/17 06:02:10;;;;;;;18.33;4.00;;;;;;;2.57;100.00;102334.72;10257079;28;20049;-72
2024/03/17 06:07:06;;;;;;;11.02;3.67;;;;;;;2.61;100.00;102325.94;10269514;28;20037;-72
2024/03/17 06:12:01;;;;;;;13.02;3.97;;;;;;;2.62;100.00;102338.41;10264037;28;20067;-71
2024/03/17 06:16:57;;;;;;;19.73;4.57;;;;;;;2.66;100.00;102341.47;10268991;28;20049;-72
2024/03/17 06:21:52;;;;;;;10.95;4.10;;;;;;;2.69;100.00;102333.75;10275926;28;20124;-72
2024/03/17 06:26:50;;;;;;;10.73;4.00;;;;;;;2.70;100.00;102329.16;10284456;28;20045;-72
2024/03/17 06:31:46;;;;;;;18.10;5.70;;;;;;;2.68;100.00;102332.09;10270285;28;20063;-75
2024/03/17 06:36:42;;;;;;;21.95;5.07;;;;;;;2.89;100.00;102332.69;10276062;28;20071;-76
2024/03/17 06:41:38;;;;;;;18.52;4.57;;;;;;;2.89;100.00;102338.09;10276865;28;20067;-76
2024/03/17 06:46:33;;;;;;;13.90;4.32;;;;;;;3.04;100.00;102345.78;10275278;28;20048;-75
2024/03/17 06:51:29;;;;;;;19.58;4.18;;;;;;;3.06;100.00;102346.38;10274241;28;20045;-75
2024/03/17 06:56:25;;;;;;;15.88;3.80;;;;;;;3.14;100.00;102341.50;10277347;28;20044;-76
2024/03/17 07:01:20;;;;;;;17.05;4.20;;;;;;;3.20;100.00;102355.16;10268444;28;20527;-75
2024/03/17 07:06:16;;;;;;;12.10;3.67;;;;;;;3.29;100.00;102365.41;10289711;28;20064;-75
2024/03/17 07:11:11;;;;;;;16.52;4.25;;;;;;;3.39;100.00;102370.31;10270996;28;20544;-76
2024/03/17 07:16:07;;;;;;;15.85;3.70;;;;;;;3.46;100.00;102371.03;10274983;28;20052;-76
2024/03/17 07:21:04;;;;;;;12.63;3.83;;;;;;;3.52;100.00;102372.78;10270858;28;20069;-75
2024/03/17 07:26:01;;;;;;;14.80;4.30;;;;;;;3.58;100.00;102371.88;10272419;28;20045;-72
2024/03/17 07:30:58;;;;;;;13.68;3.55;;;;;;;3.71;100.00;102373.59;10267344;28;20049;-74
2024/03/17 07:35:56;;;;;;;17.80;4.03;;;;;;;3.71;100.00;102372.75;10268611;28;20045;-74
2024/03/17 07:40:57;;;;;;;13.73;3.83;;;;;;;3.75;100.00;102372.03;10272690;28;20064;-76
2024/03/17 07:46:05;;;;;;;14.90;3.85;;;;;;;3.87;100.00;102377.47;10273446;28;20080;-76
2024/03/17 07:51:06;;;;;;;12.73;4.88;;;;;;;3.97;100.00;102377.75;10268334;28;20513;-76
2024/03/17 07:56:04;;;;;;;13.48;4.10;;;;;;;4.13;100.00;102388.94;10275932;28;20037;-73
2024/03/17 08:01:01;;;;;;;13.27;5.50;;;;;;;4.24;100.00;102385.44;10254074;28;20527;-73
2024/03/17 08:05:58;;;;;;;17.25;4.95;;;;;;;4.37;100.00;102385.19;10266034;28;20079;-74
2024/03/17 08:10:54;;;;;;;15.38;4.30;;;;;;;4.49;100.00;102384.38;10272143;28;20684;-72
2024/03/17 08:15:58;;;;;;;18.02;4.95;;;;;;;4.56;100.00;102368.84;10270429;28;20052;-75
2024/03/17 08:20:54;;;;;;;9.10;4.72;;;;;;;4.69;100.00;102363.16;10267206;28;20106;-73
2024/03/17 08:25:53;;;;;;;12.25;4.95;;;;;;;4.82;100.00;102368.31;10269906;28;20052;-74
2024/03/17 08:31:00;;;;;;;15.10;4.88;;;;;;;4.98;100.00;102365.94;10267171;28;20472;-73
2024/03/17 08:36:03;;;;;;;10.90;4.75;;;;;;;5.12;100.00;102367.31;10269002;28;20041;-72
2024/03/17 08:41:07;;;;;;;15.02;5.93;;;;;;;5.15;100.00;102374.97;10267259;28;20083;-73
2024/03/17 08:46:04;;;;;;;10.52;4.38;;;;;;;5.30;100.00;102381.75;10266901;28;20056;-74
2024/03/17 08:51:02;;;;;;;11.82;5.57;;;;;;;5.33;100.00;102375.84;10269533;28;20052;-76
2024/03/17 08:55:58;;;;;;;20.77;6.50;;;;;;;5.43;100.00;102370.59;10267937;28;20126;-73
2024/03/17 09:00:54;;;;;;;9.10;5.60;;;;;;;5.69;100.00;102361.88;10269599;28;20067;-72
2024/03/17 09:05:50;;;;;;;5.13;4.50;;;;;;;5.99;100.00;102360.78;10268623;28;20045;-71
2024/03/17 09:10:47;;;;;;;12.02;5.68;;;;;;;6.37;100.00;102361.91;10272611;28;20048;-72
2024/03/17 09:15:51;;;;;;;12.60;6.07;;;;;;;6.26;100.00;102354.66;10270193;28;20072;-72
2024/03/17 09:20:55;;;;;;;9.63;5.38;;;;;;;6.37;100.00;102361.09;10273108;28;20079;-72
2024/03/17 09:25:55;;;;;;;12.50;4.50;;;;;;;6.69;100.00;102358.56;10269316;28;20051;-72
2024/03/17 09:30:52;;;;;;;13.60;5.55;;;;;;;6.88;100.00;102359.88;10273158;28;20049;-71
2024/03/17 09:36:01;;;;;;;10.32;5.78;;;;;;;7.05;100.00;102361.72;10263607;28;20048;-71
2024/03/17 09:40:57;;;;;;;15.65;5.90;;;;;;;7.24;100.00;102365.75;10258760;28;20080;-72
2024/03/17 09:45:57;;;;;;;12.05;4.88;;;;;;;6.74;100.00;102375.72;10271236;28;20068;-74
2024/03/17 09:50:57;;;;;;;13.18;4.93;;;;;;;7.16;100.00;102374.34;10259144;28;20456;-74
2024/03/17 09:56:08;;;;;;;14.63;5.25;;;;;;;7.58;100.00;102371.81;10253779;28;20037;-74
2024/03/17 10:01:05;;;;;;;11.20;5.15;;;;;;;7.93;100.00;102377.84;10262834;28;20069;-74
2024/03/17 10:06:01;;;;;;;11.05;4.97;;;;;;;7.65;100.00;102382.50;10255215;28;20080;-74
2024/03/17 10:10:56;;;;;;;11.90;5.78;;;;;;;7.80;100.00;102390.00;10267416;28;20037;-74
2024/03/17 10:15:52;;;;;;;10.13;4.80;;;;;;;8.37;100.00;102388.53;10255313;28;20561;-72
2024/03/17 10:20:52;;;;;;;10.48;4.80;;;;;;;8.62;100.00;102386.00;10255942;28;20053;-73
2024/03/17 10:25:48;;;;;;;12.70;6.60;;;;;;;9.24;100.00;102384.41;10266902;28;20551;-73
2024/03/17 10:31:00;;;;;;;12.63;5.40;;;;;;;9.28;100.00;102390.13;10260430;28;20096;-72
2024/03/17 10:36:00;;;;;;;11.80;5.10;;;;;;;9.69;100.00;102398.44;10270291;28;20045;-73
2024/03/17 10:40:56;;;;;;;11.52;5.00;;;;;;;9.31;100.00;102397.78;10272229;28;20159;-72
2024/03/17 10:45:54;;;;;;;7.72;4.70;;;;;;;10.39;100.00;102392.44;10278561;28;20103;-73
2024/03/17 10:50:52;;;;;;;9.27;5.45;;;;;;;10.31;100.00;102383.72;10263408;28;20482;-73
2024/03/17 10:55:50;;;;;;;8.07;4.78;;;;;;;10.08;100.00;102384.25;10253679;28;20045;-74
2024/03/17 11:00:47;;;;;;;7.50;3.88;;;;;;;10.65;100.00;102377.66;10260598;28;20068;-71
2024/03/17 11:05:43;;;;;;;15.25;5.10;;;;;;;10.74;100.00;102386.91;10267606;28;20076;-74
2024/03/17 11:10:41;;;;;;;15.80;5.82;;;;;;;11.62;100.00;102372.78;10274425;28;20127;-74
2024/03/17 11:15:40;;;;;;;7.93;4.45;;;;;;;11.09;100.00;102376.94;10270016;28;20080;-74
2024/03/17 11:20:37;;;;;;;6.53;4.80;;;;;;;11.59;100.00;102375.00;10265801;28;20072;-75
2024/03/17 11:25:35;;;;;;;12.25;3.88;;;;;;;11.33;100.00;102381.75;10259275;28;20069;-75
2024/03/17 11:30:40;;;;;;;7.63;3.92;;;;;;;11.81;100.00;102381.97;10261581;28;20095;-75
2024/03/17 11:35:35;;;;;;;9.18;4.55;;;;;;;12.48;100.00;102384.16;10261047;28;20068;-76
2024/03/17 11:40:31;;;;;;;9.25;5.00;;;;;;;12.51;99.96;102367.94;10271629;28;20083;-74
2024/03/17 11:45:26;;;;;;;13.07;4.30;;;;;;;12.59;100.00;102369.22;10272663;28;20060;-75
2024/03/17 11:50:22;;;;;;;6.95;3.83;;;;;;;11.78;100.00;102361.44;10269157;28;20041;-75
2024/03/17 11:55:18;;;;;;;9.70;4.07;;;;;;;12.21;100.00;102358.09;10271261;28;20072;-77
2024/03/17 12:00:20;;;;;;;8.50;3.85;;;;;;;13.10;93.04;102352.13;10272652;28;20059;-77
2024/03/17 12:05:16;;;;;;;8.88;4.20;;;;;;;12.79;96.51;102336.06;10269891;28;20107;-77
2024/03/17 12:10:13;;;;;;;5.25;3.60;;;;;;;13.20;91.22;102340.19;10272189;28;20093;-76
2024/03/17 12:15:19;;;;;;;7.30;4.00;;;;;;;13.59;91.35;102337.16;10269782;28;20072;-76
2024/03/17 12:20:19;;;;;;;9.52;4.05;;;;;;;14.01;85.76;102338.13;10267019;28;20049;-77
2024/03/17 12:25:20;;;;;;;9.20;3.97;;;;;;;14.87;83.88;102337.63;10275887;28;20049;-76
2024/03/17 12:30:17;;;;;;;13.45;4.57;;;;;;;14.90;75.61;102328.75;10265367;28;20107;-76
2024/03/17 12:35:17;;;;;;;10.10;4.65;;;;;;;15.40;73.39;102338.13;10270939;28;20068;-76
2024/03/17 12:40:21;;;;;;;9.23;4.25;;;;;;;16.45;68.12;102323.06;10268470;28;20084;-76
2024/03/17 12:45:22;;;;;;;13.07;4.85;;;;;;;18.57;61.48;102323.19;10271486;28;20076;-77
2024/03/17 12:50:18;;;;;;;6.68;4.30;;;;;;;18.26;58.47;102313.25;10271190;28;20512;-74
2024/03/17 13:00:34;;;;;;;16.52;5.28;;;;;;;19.05;56.52;102288.69;10272235;28;20466;-75
2024/03/17 13:05:46;;;;;;;11.57;5.32;;;;;;;20.30;55.80;102291.53;10266454;28;20084;-75
2024/03/17 13:10:42;;;;;;;12.23;5.28;;;;;;;20.39;54.76;102284.69;10269279;28;20076;-74
2024/03/17 13:15:38;;;;;;;9.43;6.30;;;;;;;20.97;53.35;102280.97;10258387;28;20056;-75
2024/03/17 13:20:34;;;;;;;10.30;5.28;;;;;;;22.06;53.96;102276.06;10260484;28;20047;-75
2024/03/17 13:25:36;;;;;;;12.35;6.05;;;;;;;22.63;50.09;102270.31;10267185;28;20118;-75
2024/03/17 13:30:33;;;;;;;;;;;;;;;23.58;43.61;102264.34;10288496;28;20103;-75
2024/03/17 13:35:30;;;;;;;7.47;5.22;;;;;;;21.03;49.97;102257.34;10255449;28;20040;-76
2024/03/17 13:40:26;;;;;;;23.05;5.57;;;;;;;19.53;50.99;102264.28;10259902;28;20060;-76
2024/03/17 13:45:24;;;;;;;9.00;5.18;;;;;;;20.05;49.84;102268.47;10251414;28;20505;-74
2024/03/17 13:50:19;;;;;;;10.18;5.15;;;;;;;19.08;48.56;102271.38;10264597;28;20088;-77
2024/03/17 13:55:18;;;;;;;11.02;5.10;;;;;;;18.15;55.06;102270.44;10266877;28;20493;-75
2024/03/17 14:00:19;;;;;;;14.38;5.47;;;;;;;18.67;57.36;102264.63;10268336;28;20526;-77
2024/03/17 14:05:16;;;;;;;8.23;5.00;;;;;;;19.46;52.41;102256.53;10263590;28;20049;-75
2024/03/17 14:10:14;;;;;;;11.65;5.63;;;;;;;20.14;48.23;102255.31;10274593;28;20044;-76
2024/03/17 14:15:11;;;;;;;7.75;5.05;;;;;;;19.91;48.43;102252.16;10263456;28;20657;-75
2024/03/17 14:20:09;;;;;;;7.68;4.88;;;;;;;17.96;55.82;102247.88;10267766;28;20469;-75
2024/03/17 14:25:06;;;;;;;12.13;5.18;;;;;;;16.16;61.72;102238.88;10256681;28;20064;-74
2024/03/17 14:30:03;;;;;;;8.95;4.90;;;;;;;15.40;61.05;102233.41;10261000;28;20053;-73
2024/03/17 14:34:59;;;;;;;7.05;4.63;;;;;;;14.91;61.30;102222.97;10261352;28;20481;-75
2024/03/17 14:39:55;;;;;;;8.77;4.57;;;;;;;14.17;71.75;102214.09;10267696;28;20048;-74
2024/03/17 14:44:50;;;;;;;6.18;4.55;;;;;;;14.25;67.91;102205.94;10263315;28;20131;-75
2024/03/17 14:49:46;;;;;;;8.00;4.55;;;;;;;14.34;76.26;102217.03;10267147;28;20408;-74
2024/03/17 14:54:42;;;;;;;11.02;4.75;;;;;;;14.56;73.67;102215.53;10259172;28;20049;-75
2024/03/17 14:59:38;;;;;;;6.30;4.40;;;;;;;15.46;74.11;102210.91;10267460;28;20076;-75
2024/03/17 15:04:34;;;;;;;12.88;4.57;;;;;;;16.08;72.14;102215.63;10259668;28;20083;-74
2024/03/17 15:09:29;;;;;;;6.40;5.07;;;;;;;17.20;66.47;102211.44;10255815;28;20059;-75
2024/03/17 15:14:25;;;;;;;10.32;4.95;;;;;;;18.44;66.44;102207.91;10254907;28;20063;-75
2024/03/17 15:19:20;;;;;;;13.13;4.68;;;;;;;15.93;68.03;102221.56;10267104;28;20041;-76
2024/03/17 15:24:16;;;;;;;8.90;4.40;;;;;;;15.15;74.88;102210.84;10265764;28;20056;-75
2024/03/17 15:29:12;;;;;;;8.93;4.45;;;;;;;14.70;82.45;102221.81;10258170;28;20045;-77
2024/03/17 15:34:08;;;;;;;12.13;4.72;;;;;;;13.59;87.39;102221.75;10264382;28;20049;-77
2024/03/17 15:39:06;;;;;;;7.95;4.70;;;;;;;14.14;86.62;102209.22;10263472;28;20073;-76
2024/03/17 15:44:02;;;;;;;7.53;4.75;;;;;;;13.87;93.86;102221.81;10266163;28;20041;-76
2024/03/17 15:48:58;;;;;;;12.30;4.50;;;;;;;14.32;82.82;102211.03;10270551;28;20048;-76
2024/03/17 15:53:54;;;;;;;11.43;5.90;;;;;;;14.30;84.86;102213.28;10262145;28;20144;-76
2024/03/17 15:58:49;;;;;;;10.20;4.85;;;;;;;14.70;85.72;102214.34;10269659;28;20131;-76
2024/03/17 16:03:46;;;;;;;8.60;4.57;;;;;;;15.76;82.64;102217.59;10255875;28;20501;-74
2024/03/17 16:08:46;;;;;;;9.23;4.75;;;;;;;15.41;83.63;102215.72;10270588;28;20081;-75
2024/03/17 16:13:47;;;;;;;8.05;4.45;;;;;;;13.82;87.57;102211.72;10259115;28;20527;-73
2024/03/17 16:18:43;;;;;;;8.85;4.60;;;;;;;13.06;91.45;102208.31;10265549;28;20075;-75
2024/03/17 16:23:53;;;;;;;13.45;5.00;;;;;;;12.89;97.70;102213.53;10271274;28;20081;-75
2024/03/17 16:28:48;;;;;;;7.97;4.40;;;;;;;12.47;98.31;102207.78;10262188;28;20079;-76
2024/03/17 16:33:45;;;;;;;7.40;4.53;;;;;;;11.66;100.00;102210.28;10263127;28;20511;-76
2024/03/17 16:38:41;;;;;;;5.93;4.20;;;;;;;11.40;100.00;102209.72;10262502;28;20084;-75
2024/03/17 16:43:50;;;;;;;9.20;4.68;;;;;;;10.80;100.00;102204.41;10252112;28;20075;-76
2024/03/17 16:48:45;;;;;;;12.23;4.50;;;;;;;10.59;100.00;102198.22;10263596;28;20048;-76
2024/03/17 16:53:41;;;;;;;10.55;5.80;;;;;;;10.34;100.00;102201.91;10258367;28;20045;-75
2024/03/17 16:58:36;;;;;;;8.07;4.35;;;;;;;10.19;100.00;102205.47;10259341;28;20048;-76
2024/03/17 17:03:35;;;;;;;9.80;4.90;;;;;;;10.04;100.00;102202.78;10266616;28;20051;-76
2024/03/17 17:08:31;;;;;;;7.38;4.82;;;;;;;9.88;100.00;102191.88;10264945;28;20090;-76
2024/03/17 17:13:29;;;;;;;13.32;4.32;;;;;;;9.75;100.00;102192.50;10262549;28;20501;-75
2024/03/17 17:19:02;;;;;;;9.82;4.43;;;;;;;9.48;100.00;102195.53;10275771;28;20149;-75
2024/03/17 17:23:59;;;;;;;8.38;4.70;;;;;;;9.44;100.00;102178.84;10259281;28;20284;-75
2024/03/17 17:28:57;;;;;;;8.68;5.70;;;;;;;9.19;100.00;102178.88;10255698;28;20302;-76
2024/03/17 17:33:54;;;;;;;6.78;4.75;;;;;;;8.96;100.00;102189.22;10260996;28;20041;-76
2024/03/17 17:38:50;;;;;;;10.20;6.38;;;;;;;8.59;100.00;102182.06;10256415;28;20073;-76
2024/03/17 17:43:48;;;;;;;10.82;4.75;;;;;;;8.79;100.00;102177.75;10254941;28;20481;-75
2024/03/17 17:48:47;;;;;;;8.25;5.20;;;;;;;8.59;100.00;102173.88;10264575;28;20611;-75
2024/03/17 17:53:44;;;;;;;5.20;4.70;;;;;;;8.44;100.00;102171.09;10255361;28;20084;-74
2024/03/17 17:58:41;;;;;;;6.10;5.50;;;;;;;8.32;100.00;102175.94;10251607;28;20084;-76
2024/03/17 18:03:37;;;;;;;7.57;4.70;;;;;;;8.22;100.00;102174.81;10260619;28;20134;-76
2024/03/17 18:08:33;;;;;;;6.45;5.15;;;;;;;8.11;100.00;102173.13;10275789;28;20535;-75
2024/03/17 18:13:30;;;;;;;6.15;5.55;;;;;;;7.57;100.00;102174.19;10259322;28;20033;-75
2024/03/17 18:18:27;;;;;;;8.10;5.25;;;;;;;7.64;100.00;102179.41;10256428;28;20086;-76
2024/03/17 18:23:23;;;;;;;6.53;5.05;;;;;;;7.46;100.00;102182.56;10274140;28;20111;-76
2024/03/17 18:28:20;;;;;;;6.28;5.20;;;;;;;7.50;100.00;102191.84;10261102;28;20309;-76
2024/03/17 18:33:17;;;;;;;8.98;5.80;;;;;;;7.33;100.00;102189.25;10269850;28;20416;-76
2024/03/17 18:38:12;;;;;;;9.10;5.35;;;;;;;7.29;100.00;102194.41;10264077;28;20080;-76
2024/03/17 18:43:08;;;;;;;7.93;5.30;;;;;;;7.05;100.00;102203.97;10269054;28;20099;-75
2024/03/17 18:48:04;;;;;;;7.07;5.30;;;;;;;6.91;100.00;102198.94;10246973;28;20045;-76
2024/03/17 18:52:59;;;;;;;5.75;5.10;;;;;;;6.75;100.00;102194.41;10255462;28;20496;-75
2024/03/17 18:57:55;;;;;;;7.55;5.40;;;;;;;6.84;100.00;102192.88;10268264;28;20493;-77
2024/03/17 19:02:51;;;;;;;6.40;5.55;;;;;;;6.80;100.00;102190.94;10264889;28;20409;-78
2024/03/17 19:07:49;;;;;;;6.00;4.90;;;;;;;6.72;100.00;102194.94;10263045;28;20041;-77
2024/03/17 19:12:45;;;;;;;8.75;5.70;;;;;;;6.64;100.00;102195.41;10277877;28;20134;-75
2024/03/17 19:17:40;;;;;;;5.82;5.22;;;;;;;6.49;100.00;102188.69;10269308;28;20029;-75
2024/03/17 19:22:43;;;;;;;6.65;5.95;;;;;;;6.03;100.00;102193.56;10266835;28;20478;-74
2024/03/17 19:27:39;;;;;;;8.52;5.93;;;;;;;6.13;100.00;102189.34;10269575;28;20114;-75
2024/03/17 19:32:36;;;;;;;7.88;6.40;;;;;;;6.21;100.00;102183.47;10258869;28;20061;-75
2024/03/17 19:37:32;;;;;;;6.68;5.95;;;;;;;6.18;100.00;102170.41;10272324;28;20069;-76
2024/03/17 19:42:28;;;;;;;6.97;6.28;;;;;;;6.18;100.00;102170.41;10264233;28;20072;-75
2024/03/17 19:47:23;;;;;;;6.93;6.28;;;;;;;6.02;100.00;102170.22;10269922;28;20037;-76
2024/03/17 19:52:20;;;;;;;6.80;6.10;;;;;;;6.30;100.00;102176.53;10272221;28;20029;-76
2024/03/17 19:57:17;;;;;;;7.07;6.40;;;;;;;5.84;100.00;102178.63;10272361;28;20147;-75
2024/03/17 20:02:13;;;;;;;7.88;6.13;;;;;;;6.01;100.00;102174.00;10278713;28;20037;-76
2024/03/17 20:07:08;;;;;;;6.10;5.50;;;;;;;6.16;100.00;102175.28;10266307;28;20084;-75
2024/03/17 20:12:04;;;;;;;6.38;5.78;;;;;;;5.94;100.00;102176.09;10273771;28;20086;-75
2024/03/17 20:17:03;;;;;;;7.38;6.25;;;;;;;5.78;100.00;102183.16;10271432;28;20041;-76
2024/03/17 20:21:59;;;;;;;6.97;5.88;;;;;;;5.82;100.00;102181.56;10268630;28;20114;-76
2024/03/17 20:26:54;;;;;;;9.55;5.60;;;;;;;5.98;100.00;102185.34;10271494;28;20124;-76
2024/03/17 20:31:50;;;;;;;8.00;5.78;;;;;;;6.13;100.00;102202.91;10269622;28;20463;-76
2024/03/17 20:36:46;;;;;;;6.38;5.72;;;;;;;6.00;100.00;102204.13;10279537;28;20071;-75
2024/03/17 20:41:42;;;;;;;6.55;5.57;;;;;;;6.09;100.00;102202.59;10253776;28;20395;-75
2024/03/17 20:46:38;;;;;;;6.63;6.03;;;;;;;6.22;100.00;102195.97;10271372;28;20048;-75
2024/03/17 20:51:34;;;;;;;6.75;6.10;;;;;;;5.95;100.00;102196.72;10261744;28;20531;-77
2024/03/17 20:56:29;;;;;;;6.35;5.20;;;;;;;6.13;100.00;102197.47;10252736;28;20041;-77
2024/03/17 21:01:25;;;;;;;5.55;5.05;;;;;;;-146.18;100.00;67994.34;10255241;28;20063;-76
2024/03/17 21:06:24;;;;;;;5.57;5.07;;;;;;;5.74;100.00;102194.75;10265545;28;20037;-74
2024/03/17 21:11:20;;;;;;;7.97;4.78;;;;;;;5.93;100.00;102182.53;10249902;28;20096;-74
2024/03/17 21:16:15;;;;;;;4.97;4.50;;;;;;;5.92;100.00;102186.34;10264940;28;20123;-74
2024/03/17 21:21:11;;;;;;;5.28;4.72;;;;;;;5.88;100.00;102190.63;10263753;28;20036;-74
2024/03/17 21:26:09;;;;;;;6.68;4.55;;;;;;;5.89;100.00;102192.25;10264909;28;20045;-73
2024/03/17 21:31:04;;;;;;;5.05;4.55;;;;;;;5.95;100.00;102185.84;10263344;28;20051;-77
2024/03/17 21:36:04;;;;;;;5.32;4.28;;;;;;;5.88;100.00;102185.19;10262233;28;20044;-76
2024/03/17 21:41:00;;;;;;;5.30;4.55;;;;;;;5.42;100.00;102187.22;10263789;28;20512;-76
2024/03/17 21:45:59;;;;;;;6.88;4.50;;;;;;;5.55;100.00;102176.03;10255297;28;20045;-76
2024/03/17 21:50:55;;;;;;;6.10;4.70;;;;;;;5.53;100.00;102175.47;10268096;28;20071;-75
2024/03/17 21:55:58;;;;;;;6.50;4.78;;;;;;;5.42;100.00;102160.09;10265827;28;20143;-75
2024/03/17 22:00:54;;;;;;;5.03;4.43;;;;;;;5.54;100.00;102160.81;10266386;28;20101;-75
2024/03/17 22:05:50;;;;;;;5.07;4.57;;;;;;;5.54;100.00;102160.81;10264479;28;20510;-74
2024/03/17 22:10:56;;;;;;;5.18;4.30;;;;;;;5.15;100.00;102160.75;10265265;28;20067;-74
2024/03/17 22:15:56;;;;;;;5.25;4.75;;;;;;;5.18;100.00;102149.41;10263819;28;20059;-74
2024/03/17 22:20:53;;;;;;;5.32;4.80;;;;;;;5.17;100.00;102152.38;10265878;28;20068;-74
2024/03/17 22:26:00;;;;;;;4.95;4.47;;;;;;;4.92;100.00;102139.19;10263748;28;20528;-75
2024/03/17 22:31:00;;;;;;;5.30;4.80;;;;;;;5.03;100.00;102141.84;10267722;28;20067;-74
2024/03/17 22:36:06;;;;;;;6.78;5.10;;;;;;;4.87;100.00;102133.69;10267753;28;20037;-74
2024/03/17 22:41:06;;;;;;;5.57;4.90;;;;;;;4.78;100.00;102139.53;10262008;28;20076;-73